Time;durP1;ratioP1;P1;durP2;ratioP2;P2;SDS_P1;SDS_P2;PMS_P1;PMS_P2;Temp;Humidity;BMP_temperature;BMP_pressure;BME280_temperature;BME280_humidity;BME280_pressure;Samples;Min_cycle;Max_cycle;Signal;HPM_P1;HPM_P2
2021/01/15 00:00:22;;;;;;;1.27;1.15;;;5.30;85.80;;;;;;5003742;28;20146;-73
2021/01/15 00:02:48;;;;;;;1.45;1.02;;;5.30;85.00;;;;;;5013037;28;20029;-71
2021/01/15 00:05:13;;;;;;;1.52;1.05;;;5.30;84.70;;;;;;5014565;28;20088;-71
2021/01/15 00:07:39;;;;;;;1.00;0.93;;;5.40;85.50;;;;;;5014324;28;20126;-71
2021/01/15 00:10:06;;;;;;;2.55;2.33;;;5.30;85.10;;;;;;5014409;28;20029;-73
2021/01/15 00:12:31;;;;;;;2.28;1.42;;;5.30;85.60;;;;;;5015776;28;20069;-71
2021/01/15 00:14:57;;;;;;;1.80;0.82;;;5.30;85.90;;;;;;5015913;28;20033;-72
2021/01/15 00:17:23;;;;;;;1.00;0.85;;;5.30;85.80;;;;;;5014560;28;20028;-71
2021/01/15 00:19:49;;;;;;;1.50;1.08;;;5.30;85.90;;;;;;5016347;28;20522;-71
2021/01/15 00:22:15;;;;;;;2.55;1.38;;;5.30;85.70;;;;;;5015804;28;20033;-71
2021/01/15 00:24:41;;;;;;;3.20;1.40;;;5.30;85.30;;;;;;5015085;28;20041;-71
2021/01/15 00:27:07;;;;;;;1.65;1.27;;;5.30;85.40;;;;;;5015844;28;20029;-72
2021/01/15 00:29:33;;;;;;;1.70;1.42;;;5.20;85.60;;;;;;5016823;28;20053;-73
2021/01/15 00:31:59;;;;;;;1.60;1.50;;;5.20;86.30;;;;;;5014982;28;20033;-71
2021/01/15 00:34:25;;;;;;;2.83;1.35;;;5.20;86.30;;;;;;5016831;28;20034;-70
2021/01/15 00:36:51;;;;;;;2.00;1.45;;;5.20;86.20;;;;;;5016422;28;20398;-70
2021/01/15 00:39:16;;;;;;;1.95;1.30;;;5.20;86.40;;;;;;5016702;28;20026;-71
2021/01/15 00:41:44;;;;;;;1.75;1.33;;;5.20;86.10;;;;;;5016648;28;20030;-73
2021/01/15 00:44:10;;;;;;;1.10;0.82;;;5.20;86.50;;;;;;5015255;28;20164;-74
2021/01/15 00:46:44;;;;;;;1.42;0.80;;;5.20;86.00;;;;;;5016559;28;20026;-71
2021/01/15 00:49:12;;;;;;;1.20;0.98;;;5.20;86.30;;;;;;5016322;28;20105;-72
2021/01/15 00:51:38;;;;;;;1.35;1.25;;;5.20;86.30;;;;;;5017275;28;20040;-73
2021/01/15 00:54:05;;;;;;;2.53;1.85;;;5.20;87.50;;;;;;5016698;28;20022;-71
2021/01/15 00:56:32;;;;;;;3.53;1.83;;;5.00;87.70;;;;;;5017064;28;20038;-71
2021/01/15 00:58:58;;;;;;;2.65;0.90;;;4.90;88.00;;;;;;5016383;28;20026;-71
2021/01/15 01:01:25;;;;;;;2.45;1.10;;;5.00;87.80;;;;;;5016470;28;20034;-71
2021/01/15 01:03:52;;;;;;;1.98;1.10;;;4.90;88.80;;;;;;5034479;28;20028;-73
2021/01/15 01:06:20;;;;;;;2.25;1.63;;;4.90;89.50;;;;;;5036804;28;20032;-72
2021/01/15 01:08:46;;;;;;;2.97;1.90;;;4.90;90.00;;;;;;5025472;28;20022;-72
2021/01/15 01:11:21;;;;;;;2.00;1.10;;;5.00;89.70;;;;;;5019431;28;20037;-74
2021/01/15 01:13:51;;;;;;;1.75;1.65;;;4.90;89.50;;;;;;5014778;28;20018;-71
2021/01/15 01:16:19;;;;;;;3.10;1.25;;;4.90;89.30;;;;;;5018978;28;20485;-73
2021/01/15 01:18:45;;;;;;;1.90;1.45;;;4.80;89.10;;;;;;5020277;28;20034;-71
2021/01/15 01:21:12;;;;;;;2.22;1.67;;;4.90;89.00;;;;;;5019106;28;20025;-71
2021/01/15 01:23:39;;;;;;;1.20;1.15;;;5.00;88.30;;;;;;5019360;28;20555;-71
2021/01/15 01:26:05;;;;;;;1.63;1.20;;;5.00;87.90;;;;;;5006663;28;20030;-71
2021/01/15 01:28:32;;;;;;;2.38;1.50;;;5.00;87.90;;;;;;4999674;28;20027;-71
2021/01/15 01:30:57;;;;;;;1.65;1.10;;;5.00;88.50;;;;;;4998542;28;20093;-70
2021/01/15 01:33:23;;;;;;;1.83;1.10;;;5.00;88.30;;;;;;4999614;28;20022;-71
2021/01/15 01:35:49;;;;;;;3.40;1.50;;;4.90;88.40;;;;;;4999759;28;20065;-71
2021/01/15 01:38:16;;;;;;;1.30;1.20;;;5.00;87.90;;;;;;5000615;28;20031;-71
2021/01/15 01:40:41;;;;;;;1.48;1.33;;;5.00;87.50;;;;;;4999610;28;20029;-72
2021/01/15 01:43:07;;;;;;;1.35;0.95;;;5.00;87.40;;;;;;5013018;28;20029;-72
2021/01/15 01:45:33;;;;;;;0.80;0.80;;;5.00;87.40;;;;;;5020347;28;20058;-72
2021/01/15 01:48:03;;;;;;;2.03;1.48;;;4.90;88.30;;;;;;5019661;28;20080;-72
2021/01/15 01:50:33;;;;;;;1.83;1.38;;;5.00;87.90;;;;;;5020731;28;20100;-71
2021/01/15 01:53:02;;;;;;;1.45;1.02;;;5.00;88.00;;;;;;5020806;28;20062;-71
2021/01/15 01:55:28;;;;;;;1.05;0.93;;;4.90;88.60;;;;;;5019765;28;20030;-71
2021/01/15 01:57:54;;;;;;;1.45;0.93;;;4.90;88.40;;;;;;5018488;28;20085;-71
2021/01/15 02:00:20;;;;;;;1.40;1.30;;;4.90;88.20;;;;;;5019907;28;20061;-71
2021/01/15 02:02:46;;;;;;;1.13;0.80;;;5.00;88.30;;;;;;5020161;28;20041;-71
2021/01/15 02:05:13;;;;;;;1.48;1.35;;;5.00;87.70;;;;;;5020315;28;20034;-71
2021/01/15 02:07:38;;;;;;;1.90;1.60;;;5.00;88.10;;;;;;5020063;28;20139;-71
2021/01/15 02:10:16;;;;;;;2.40;1.17;;;5.00;87.60;;;;;;5018761;28;20092;-71
2021/01/15 02:12:49;;;;;;;1.10;1.00;;;5.10;87.50;;;;;;5016975;28;20037;-71
2021/01/15 02:15:20;;;;;;;1.48;1.00;;;5.10;88.30;;;;;;5018737;28;20018;-72
2021/01/15 02:17:58;;;;;;;2.63;1.38;;;5.10;89.10;;;;;;5017505;28;20158;-72
2021/01/15 02:20:37;;;;;;;2.83;1.33;;;5.10;88.70;;;;;;5018310;28;20026;-72
2021/01/15 02:23:23;;;;;;;3.45;1.55;;;5.10;89.00;;;;;;5019718;28;20026;-71
2021/01/15 02:26:11;;;;;;;1.67;1.23;;;5.20;88.50;;;;;;5020480;28;20018;-74
2021/01/15 02:29:10;;;;;;;2.00;1.17;;;5.20;87.90;;;;;;5019948;28;20026;-71
2021/01/15 02:31:45;;;;;;;1.42;1.33;;;5.20;87.30;;;;;;5020445;28;20048;-71
2021/01/15 02:34:49;;;;;;;1.65;1.13;;;5.20;87.00;;;;;;5020508;28;20026;-73
2021/01/15 02:37:29;;;;;;;0.93;0.90;;;5.20;87.60;;;;;;5020326;28;20490;-72
2021/01/15 02:40:20;;;;;;;1.40;1.30;;;5.20;87.60;;;;;;5019088;28;20065;-72
2021/01/15 02:42:50;;;;;;;1.10;1.00;;;5.20;87.60;;;;;;5019399;28;20030;-72
2021/01/15 02:45:17;;;;;;;1.40;1.10;;;5.20;87.50;;;;;;5020293;28;20498;-71
2021/01/15 02:47:48;;;;;;;3.15;2.53;;;5.20;88.10;;;;;;5020377;28;20022;-74
2021/01/15 02:50:15;;;;;;;6.30;2.60;;;5.20;88.10;;;;;;5019379;28;20014;-72
2021/01/15 02:52:43;;;;;;;3.78;2.00;;;5.20;87.80;;;;;;5024921;28;20025;-72
2021/01/15 02:55:11;;;;;;;2.72;2.03;;;5.30;87.50;;;;;;5025147;28;20513;-71
2021/01/15 02:57:37;;;;;;;4.20;1.80;;;5.30;88.30;;;;;;5025113;28;20053;-72
2021/01/15 03:00:05;;;;;;;2.75;1.33;;;5.20;88.00;;;;;;5020122;28;20045;-73
2021/01/15 03:02:54;;;;;;;2.95;1.20;;;5.30;87.90;;;;;;5017958;28;20096;-72
2021/01/15 03:05:22;;;;;;;2.00;1.15;;;5.40;86.50;;;;;;5019617;28;20022;-73
2021/01/15 03:07:50;;;;;;;1.25;1.15;;;5.40;87.00;;;;;;5018677;28;20030;-72
2021/01/15 03:10:21;;;;;;;3.60;1.23;;;5.30;87.20;;;;;;5019856;28;20030;-72
2021/01/15 03:12:50;;;;;;;1.60;0.77;;;5.40;87.10;;;;;;5018881;28;20041;-72
2021/01/15 03:15:18;;;;;;;2.10;1.48;;;5.30;87.00;;;;;;5016010;28;20097;-72
2021/01/15 03:17:48;;;;;;;3.42;1.88;;;5.30;86.70;;;;;;5017066;28;20497;-72
2021/01/15 03:20:16;;;;;;;1.88;1.25;;;5.40;86.30;;;;;;5017187;28;20029;-71
2021/01/15 03:22:44;;;;;;;3.30;1.90;;;5.40;86.50;;;;;;5016409;28;20026;-72
2021/01/15 03:25:13;;;;;;;2.22;1.60;;;5.40;86.60;;;;;;5018592;28;20022;-72
2021/01/15 03:27:59;;;;;;;2.45;1.80;;;5.40;86.30;;;;;;5019298;28;20014;-72
2021/01/15 03:30:29;;;;;;;3.25;1.40;;;5.50;86.20;;;;;;5018697;28;20574;-72
2021/01/15 03:32:57;;;;;;;2.85;1.50;;;5.50;86.00;;;;;;5015846;28;20103;-72
2021/01/15 03:35:28;;;;;;;1.75;1.17;;;5.50;86.00;;;;;;5015382;28;20545;-72
2021/01/15 03:38:00;;;;;;;2.42;1.42;;;5.50;86.20;;;;;;5014571;28;20425;-72
2021/01/15 03:40:29;;;;;;;2.28;1.25;;;5.40;85.80;;;;;;5015683;28;20460;-72
2021/01/15 03:42:55;;;;;;;0.80;0.80;;;5.30;84.70;;;;;;5016383;28;20037;-72
2021/01/15 03:45:21;;;;;;;1.52;1.08;;;5.20;85.50;;;;;;5016072;28;20026;-72
2021/01/15 03:47:47;;;;;;;1.63;1.45;;;5.30;85.70;;;;;;5014920;28;20026;-72
2021/01/15 03:50:13;;;;;;;1.58;0.90;;;5.40;86.00;;;;;;5016059;28;20077;-72
2021/01/15 03:52:39;;;;;;;2.38;1.50;;;5.30;86.80;;;;;;5016282;28;20438;-72
2021/01/15 03:55:06;;;;;;;1.13;1.02;;;5.40;86.20;;;;;;5015978;28;20490;-72
2021/01/15 03:57:34;;;;;;;1.40;1.20;;;5.40;86.00;;;;;;5016171;28;20042;-72
2021/01/15 04:00:03;;;;;;;2.00;1.38;;;5.40;84.90;;;;;;5015216;28;20137;-72
2021/01/15 04:02:30;;;;;;;0.70;0.70;;;5.40;86.60;;;;;;5016094;28;20505;-72
2021/01/15 04:04:56;;;;;;;1.17;1.08;;;5.40;85.60;;;;;;5015825;28;20528;-72
2021/01/15 04:07:22;;;;;;;2.05;1.13;;;5.40;85.00;;;;;;5015681;28;20018;-71
2021/01/15 04:09:48;;;;;;;1.50;1.15;;;5.40;84.40;;;;;;5023790;28;20105;-74
2021/01/15 04:12:14;;;;;;;2.40;1.48;;;5.30;84.50;;;;;;5018460;28;20036;-72
2021/01/15 04:14:41;;;;;;;1.48;1.00;;;5.40;84.30;;;;;;5016206;28;20458;-75
2021/01/15 04:17:07;;;;;;;2.25;1.30;;;5.30;83.80;;;;;;5015829;28;20493;-71
2021/01/15 04:19:33;;;;;;;2.20;1.63;;;5.30;84.50;;;;;;5015536;28;20018;-72
2021/01/15 04:21:59;;;;;;;1.88;1.20;;;5.30;86.00;;;;;;5015792;28;20052;-72
2021/01/15 04:24:25;;;;;;;2.95;1.40;;;5.20;84.20;;;;;;5016947;28;20116;-71
2021/01/15 04:26:55;;;;;;;1.55;0.95;;;5.20;84.80;;;;;;5016523;28;20164;-71
2021/01/15 04:29:21;;;;;;;1.17;0.95;;;5.20;85.70;;;;;;5016298;28;20050;-73
2021/01/15 04:31:48;;;;;;;2.28;0.80;;;5.20;85.60;;;;;;5015935;28;20044;-71
2021/01/15 04:34:14;;;;;;;0.88;0.88;;;5.20;85.40;;;;;;5015522;28;20021;-71
2021/01/15 04:36:40;;;;;;;1.50;1.13;;;5.30;85.10;;;;;;5016323;28;20513;-71
2021/01/15 04:39:07;;;;;;;1.50;1.25;;;5.30;85.40;;;;;;5016933;28;20033;-72
2021/01/15 04:41:33;;;;;;;1.55;1.00;;;5.20;86.60;;;;;;5017390;28;20393;-73
2021/01/15 04:44:01;;;;;;;2.63;1.10;;;5.30;86.70;;;;;;5016895;28;20022;-71
2021/01/15 04:46:27;;;;;;;1.33;1.13;;;5.30;86.20;;;;;;5020228;28;20026;-71
2021/01/15 04:48:55;;;;;;;2.03;1.00;;;5.30;86.20;;;;;;5021438;28;20026;-72
2021/01/15 04:51:24;;;;;;;1.27;0.88;;;5.30;86.80;;;;;;5020148;28;20028;-75
2021/01/15 04:54:01;;;;;;;1.45;0.95;;;5.30;86.50;;;;;;5019412;28;20039;-73
2021/01/15 04:56:54;;;;;;;2.70;0.98;;;5.20;87.60;;;;;;5020552;28;20161;-72
2021/01/15 04:59:21;;;;;;;2.90;1.48;;;5.10;87.50;;;;;;5020260;28;20157;-71
2021/01/15 05:01:49;;;;;;;2.05;0.95;;;5.10;87.80;;;;;;5019256;28;20478;-71
2021/01/15 05:04:19;;;;;;;1.25;1.15;;;5.10;88.20;;;;;;5019562;28;20057;-73
2021/01/15 05:06:46;;;;;;;0.82;0.80;;;5.10;88.90;;;;;;5020145;28;20021;-71
2021/01/15 05:09:14;;;;;;;1.67;1.10;;;5.00;89.00;;;;;;5020248;28;20025;-71
2021/01/15 05:11:42;;;;;;;1.38;1.27;;;4.80;89.40;;;;;;5019911;28;20021;-71
2021/01/15 05:14:10;;;;;;;2.97;1.20;;;4.80;90.00;;;;;;5019511;28;20080;-72
2021/01/15 05:16:42;;;;;;;1.30;1.10;;;4.80;89.80;;;;;;5019739;28;20029;-72
2021/01/15 05:19:09;;;;;;;2.10;1.23;;;4.80;90.00;;;;;;5020259;28;20033;-72
2021/01/15 05:21:36;;;;;;;1.92;1.60;;;4.90;90.40;;;;;;5020529;28;20056;-73
2021/01/15 05:24:04;;;;;;;1.65;1.40;;;4.90;90.50;;;;;;5017949;28;20049;-71
2021/01/15 05:26:30;;;;;;;0.95;0.77;;;4.90;90.50;;;;;;5019498;28;20028;-73
2021/01/15 05:28:56;;;;;;;1.38;1.27;;;4.90;90.60;;;;;;5020499;28;20038;-71
2021/01/15 05:31:22;;;;;;;1.40;1.20;;;4.90;90.60;;;;;;5019908;28;20034;-71
2021/01/15 05:34:06;;;;;;;3.17;1.30;;;4.80;90.90;;;;;;5019417;28;20045;-71
2021/01/15 05:36:34;;;;;;;4.13;1.60;;;4.80;90.90;;;;;;5021242;28;20033;-72
2021/01/15 05:39:21;;;;;;;2.55;1.48;;;4.90;91.00;;;;;;5019571;28;20026;-72
2021/01/15 05:41:48;;;;;;;1.55;1.15;;;4.80;91.20;;;;;;5017660;28;20041;-73
2021/01/15 05:44:40;;;;;;;3.15;1.73;;;4.80;91.40;;;;;;5019048;28;20026;-71
2021/01/15 05:47:06;;;;;;;1.25;1.15;;;4.80;91.20;;;;;;5026308;28;20552;-72
2021/01/15 05:49:32;;;;;;;2.72;1.67;;;4.80;91.40;;;;;;5002937;28;20057;-72
2021/01/15 05:52:08;;;;;;;2.50;1.80;;;4.90;91.60;;;;;;4999436;28;20023;-72
2021/01/15 05:54:34;;;;;;;2.25;1.30;;;4.90;91.20;;;;;;4998336;28;20037;-71
2021/01/15 05:57:01;;;;;;;1.25;1.15;;;4.80;91.30;;;;;;5000956;28;20026;-73
2021/01/15 05:59:27;;;;;;;2.90;1.73;;;4.80;91.40;;;;;;5017826;28;20022;-72
2021/01/15 06:01:56;;;;;;;2.55;1.45;;;4.80;91.80;;;;;;5029654;28;20096;-72
2021/01/15 06:04:35;;;;;;;2.63;2.40;;;4.90;91.60;;;;;;5029211;28;20029;-72
2021/01/15 06:07:25;;;;;;;4.63;1.45;;;4.90;91.90;;;;;;5011939;28;20052;-74
2021/01/15 06:10:01;;;;;;;1.55;1.30;;;4.90;92.00;;;;;;5005055;28;20034;-73
2021/01/15 06:12:39;;;;;;;1.80;1.27;;;4.90;92.50;;;;;;5004908;28;20518;-72
2021/01/15 06:15:06;;;;;;;4.65;2.00;;;5.00;92.20;;;;;;5011021;28;20120;-72
2021/01/15 06:17:40;;;;;;;4.43;2.97;;;5.00;92.40;;;;;;5010400;28;20025;-72
2021/01/15 06:20:07;;;;;;;8.18;2.42;;;5.00;92.10;;;;;;5008928;28;20076;-72
2021/01/15 06:22:43;;;;;;;5.75;4.03;;;5.00;92.20;;;;;;5008349;28;20069;-72
2021/01/15 06:25:24;;;;;;;3.83;2.95;;;5.00;92.30;;;;;;5008787;28;20025;-72
2021/01/15 06:27:56;;;;;;;2.25;1.67;;;5.10;92.30;;;;;;5006098;28;20033;-71
2021/01/15 06:30:27;;;;;;;2.15;1.75;;;5.00;91.90;;;;;;5015288;28;20053;-71
2021/01/15 06:32:55;;;;;;;1.90;1.42;;;5.00;92.30;;;;;;5016872;28;20600;-71
2021/01/15 06:35:27;;;;;;;3.85;1.92;;;4.90;92.60;;;;;;5005267;28;20033;-72
2021/01/15 06:38:07;;;;;;;2.22;1.65;;;4.90;91.80;;;;;;5006577;28;20026;-71
2021/01/15 06:40:38;;;;;;;1.77;1.52;;;4.80;92.10;;;;;;4999556;28;20486;-75
2021/01/15 06:43:09;;;;;;;3.72;2.30;;;4.80;92.30;;;;;;5018353;28;20128;-74
2021/01/15 06:45:41;;;;;;;4.40;2.28;;;4.90;92.10;;;;;;5022232;28;20037;-74
2021/01/15 06:48:13;;;;;;;4.75;2.53;;;4.90;92.10;;;;;;5020450;28;20026;-73
2021/01/15 06:50:47;;;;;;;5.60;2.33;;;5.00;92.00;;;;;;5021272;28;20022;-73
2021/01/15 06:53:18;;;;;;;1.67;1.58;;;5.00;92.40;;;;;;5020627;28;20510;-74
2021/01/15 06:55:52;;;;;;;1.92;1.63;;;5.00;91.70;;;;;;5019623;28;20025;-74
2021/01/15 06:58:28;;;;;;;2.85;1.90;;;5.00;91.90;;;;;;5020557;28;20516;-74
2021/01/15 07:01:09;;;;;;;2.88;1.80;;;4.90;92.10;;;;;;5018545;28;20369;-74
2021/01/15 07:04:12;;;;;;;3.30;2.25;;;4.90;92.40;;;;;;5018334;28;20025;-73
2021/01/15 07:06:38;;;;;;;4.65;1.67;;;5.00;92.30;;;;;;5013698;28;20074;-74
2021/01/15 07:09:07;;;;;;;3.83;2.20;;;5.00;92.50;;;;;;5009156;28;20022;-74
2021/01/15 07:11:41;;;;;;;2.35;1.40;;;5.20;93.10;;;;;;5029070;28;20029;-74
2021/01/15 07:14:07;;;;;;;4.68;1.88;;;5.20;91.90;;;;;;5002581;28;20031;-73
2021/01/15 07:16:38;;;;;;;2.42;1.60;;;5.20;94.10;;;;;;4999495;28;20037;-73
2021/01/15 07:19:19;;;;;;;2.97;2.25;;;5.30;92.20;;;;;;4999478;28;20058;-74
2021/01/15 07:22:09;;;;;;;6.20;2.20;;;5.40;94.20;;;;;;5000431;28;20038;-73
2021/01/15 07:24:38;;;;;;;5.28;2.50;;;5.50;94.00;;;;;;5018569;28;20029;-73
2021/01/15 07:27:07;;;;;;;7.78;1.85;;;5.70;92.90;;;;;;5018054;28;20029;-73
2021/01/15 07:29:35;;;;;;;2.10;1.63;;;5.60;92.10;;;;;;5017867;28;20026;-74
2021/01/15 07:32:08;;;;;;;4.00;1.77;;;5.50;92.20;;;;;;5016540;28;20041;-73
2021/01/15 07:34:36;;;;;;;;;;;5.40;92.50;;;;;;5017883;28;20029;-73
2021/01/15 07:37:18;;;;;;;4.40;1.88;;;5.50;94.30;;;;;;5017286;28;19997;-73
2021/01/15 07:40:17;;;;;;;2.83;1.48;;;5.60;92.50;;;;;;5017350;28;20101;-74
2021/01/15 07:42:45;;;;;;;4.32;2.35;;;5.50;91.90;;;;;;5004520;28;20120;-72
2021/01/15 07:45:39;;;;;;;2.50;1.70;;;5.60;92.40;;;;;;5012367;28;20092;-74
2021/01/15 07:48:06;;;;;;;3.50;1.83;;;5.60;93.00;;;;;;5013516;28;20018;-72
2021/01/15 07:50:35;;;;;;;19.15;2.42;;;5.80;92.70;;;;;;5015284;28;20022;-71
2021/01/15 07:53:12;;;;;;;5.57;2.00;;;5.80;92.10;;;;;;5013984;28;20148;-72
2021/01/15 07:55:45;;;;;;;2.00;1.63;;;5.90;93.60;;;;;;5013778;28;20018;-72
2021/01/15 07:58:11;;;;;;;3.17;2.50;;;5.90;92.40;;;;;;5009595;28;20493;-72
2021/01/15 08:00:38;;;;;;;2.35;1.63;;;5.90;92.60;;;;;;5001968;28;20117;-75
2021/01/15 08:03:04;;;;;;;4.53;2.15;;;5.90;92.90;;;;;;5012633;28;20025;-73
2021/01/15 08:05:30;;;;;;;1.55;1.13;;;6.00;92.50;;;;;;5013098;28;20050;-73
2021/01/15 08:08:06;;;;;;;3.75;1.90;;;6.00;91.40;;;;;;5013630;28;20029;-73
2021/01/15 08:10:44;;;;;;;1.25;1.13;;;6.00;90.80;;;;;;5012523;28;20097;-73
2021/01/15 08:13:18;;;;;;;1.58;1.25;;;5.70;90.10;;;;;;5014033;28;20030;-72
2021/01/15 08:15:44;;;;;;;1.85;1.38;;;5.50;90.50;;;;;;5012338;28;20022;-72
2021/01/15 08:18:10;;;;;;;2.60;1.75;;;5.30;91.00;;;;;;5006701;28;20494;-72
2021/01/15 08:20:36;;;;;;;2.35;1.38;;;5.40;92.20;;;;;;5005234;28;20040;-73
2021/01/15 08:23:02;;;;;;;3.15;1.58;;;5.50;92.00;;;;;;5000973;28;20113;-73
2021/01/15 08:25:29;;;;;;;1.95;1.65;;;5.60;91.50;;;;;;5004809;28;20010;-72
2021/01/15 08:27:56;;;;;;;3.22;1.85;;;5.60;92.70;;;;;;5008482;28;20929;-72
2021/01/15 08:30:23;;;;;;;3.20;1.85;;;5.60;91.40;;;;;;5010174;28;20041;-73
2021/01/15 08:32:49;;;;;;;2.00;1.40;;;5.50;91.30;;;;;;5013044;28;20068;-71
2021/01/15 08:35:26;;;;;;;2.05;1.50;;;5.40;91.70;;;;;;5003335;28;20060;-71
2021/01/15 08:37:59;;;;;;;3.45;1.20;;;5.60;91.60;;;;;;5013212;28;20029;-77
2021/01/15 08:40:31;;;;;;;1.65;1.17;;;5.50;91.50;;;;;;5012626;28;20460;-72
2021/01/15 08:42:58;;;;;;;1.95;0.90;;;5.40;91.80;;;;;;5008886;28;20464;-72
2021/01/15 08:45:28;;;;;;;1.92;1.58;;;5.30;91.50;;;;;;5008101;28;20108;-74
2021/01/15 08:47:57;;;;;;;2.33;1.30;;;5.30;92.00;;;;;;5014392;28;20032;-73
2021/01/15 08:50:24;;;;;;;2.20;1.58;;;5.40;92.00;;;;;;5014229;28;20397;-73
2021/01/15 08:52:51;;;;;;;1.90;1.00;;;5.40;91.60;;;;;;5014174;28;20034;-73
2021/01/15 08:55:19;;;;;;;2.22;1.83;;;5.40;92.20;;;;;;5012073;28;20033;-74
2021/01/15 08:57:48;;;;;;;1.40;1.30;;;5.40;91.70;;;;;;5011975;28;20029;-73
2021/01/15 09:00:23;;;;;;;5.57;1.58;;;5.50;91.70;;;;;;5006518;28;20026;-74
2021/01/15 09:02:51;;;;;;;1.83;1.40;;;5.40;91.40;;;;;;5013886;28;20037;-73
2021/01/15 09:05:21;;;;;;;2.03;1.48;;;5.30;91.60;;;;;;5014977;28;20014;-73
2021/01/15 09:07:49;;;;;;;2.42;1.48;;;5.40;91.70;;;;;;5006900;28;20032;-74
2021/01/15 09:10:17;;;;;;;2.22;2.08;;;5.30;91.50;;;;;;5015614;28;20026;-73
2021/01/15 09:12:47;;;;;;;6.10;2.08;;;5.30;92.20;;;;;;5016083;28;20085;-74
2021/01/15 09:15:26;;;;;;;2.33;1.55;;;5.30;91.50;;;;;;5015550;28;20026;-74
2021/01/15 09:17:53;;;;;;;2.30;1.65;;;5.30;91.90;;;;;;5016017;28;20044;-75
2021/01/15 09:20:20;;;;;;;1.88;1.33;;;5.30;91.90;;;;;;5013931;28;20156;-74
2021/01/15 09:22:47;;;;;;;1.63;1.33;;;5.20;91.80;;;;;;5008327;28;20069;-74
2021/01/15 09:25:17;;;;;;;2.88;2.15;;;5.20;92.20;;;;;;5009936;28;20038;-73
2021/01/15 09:27:44;;;;;;;3.53;2.05;;;5.20;92.30;;;;;;5000703;28;20031;-74
2021/01/15 09:30:11;;;;;;;2.50;1.88;;;5.30;92.20;;;;;;5006902;28;20018;-74
2021/01/15 09:32:43;;;;;;;2.45;2.25;;;5.30;92.50;;;;;;5022835;28;20053;-74
2021/01/15 09:35:09;;;;;;;;;;;5.40;92.40;;;;;;5014220;28;20026;-74
2021/01/15 09:37:35;;;;;;;2.63;1.58;;;5.30;92.50;;;;;;5020911;28;20433;-74
2021/01/15 09:40:01;;;;;;;1.63;1.52;;;5.30;92.50;;;;;;5021677;28;20026;-74
2021/01/15 09:42:30;;;;;;;1.63;1.10;;;5.20;92.60;;;;;;5020016;28;20113;-74
2021/01/15 09:44:56;;;;;;;2.30;2.10;;;5.20;92.20;;;;;;5016792;28;20022;-74
2021/01/15 09:47:21;;;;;;;1.35;1.25;;;5.20;92.40;;;;;;5027326;28;20049;-74
2021/01/15 09:49:47;;;;;;;1.75;1.60;;;5.20;92.10;;;;;;5030405;28;20036;-74
2021/01/15 09:52:13;;;;;;;2.70;1.55;;;5.20;92.20;;;;;;5022042;28;20022;-74
2021/01/15 09:54:40;;;;;;;3.10;1.67;;;5.20;92.00;;;;;;5014903;28;20385;-73
2021/01/15 09:57:08;;;;;;;1.42;1.33;;;5.30;92.30;;;;;;5019847;28;20022;-74
2021/01/15 09:59:35;;;;;;;3.03;2.00;;;5.30;92.10;;;;;;5041097;28;20029;-74
2021/01/15 10:02:01;;;;;;;1.90;1.70;;;5.30;92.00;;;;;;5021257;28;20022;-73
2021/01/15 10:04:27;;;;;;;3.10;2.65;;;5.40;92.30;;;;;;5020211;28;20045;-75
2021/01/15 10:06:53;;;;;;;3.72;2.08;;;5.50;91.90;;;;;;5020729;28;20041;-74
2021/01/15 10:09:19;;;;;;;1.58;1.05;;;5.50;91.50;;;;;;5019253;28;20018;-74
2021/01/15 10:11:47;;;;;;;1.40;1.30;;;5.50;91.30;;;;;;5021779;28;20030;-74
2021/01/15 10:14:15;;;;;;;1.60;1.50;;;5.50;91.30;;;;;;5020106;28;20103;-73
2021/01/15 10:16:46;;;;;;;3.10;1.17;;;5.60;91.30;;;;;;5022779;28;20056;-72
2021/01/15 10:19:12;;;;;;;1.45;1.35;;;5.50;91.20;;;;;;5018551;28;20057;-72
2021/01/15 10:21:39;;;;;;;1.55;1.35;;;5.50;91.20;;;;;;5021461;28;20038;-72
2021/01/15 10:24:07;;;;;;;1.33;1.23;;;5.50;91.40;;;;;;5023439;28;20010;-72
2021/01/15 10:26:45;;;;;;;2.38;1.50;;;5.60;91.20;;;;;;5023338;28;20028;-73
2021/01/15 10:29:40;;;;;;;2.63;2.05;;;5.70;91.60;;;;;;5009028;28;20030;-73
2021/01/15 10:32:06;;;;;;;1.17;0.93;;;5.70;90.90;;;;;;5018204;28;20108;-72
2021/01/15 10:34:33;;;;;;;1.58;1.48;;;5.70;91.00;;;;;;5019382;28;20380;-73
2021/01/15 10:37:02;;;;;;;2.45;1.75;;;5.80;91.30;;;;;;5025180;28;20041;-73
2021/01/15 10:39:28;;;;;;;1.77;1.38;;;5.80;91.40;;;;;;5023509;28;20050;-73
2021/01/15 10:42:01;;;;;;;5.13;2.05;;;5.90;91.40;;;;;;5020243;28;20032;-73
2021/01/15 10:44:36;;;;;;;1.85;1.60;;;6.10;90.80;;;;;;5019992;28;20049;-73
2021/01/15 10:47:16;;;;;;;1.75;1.38;;;6.10;91.00;;;;;;5021115;28;20037;-73
2021/01/15 10:49:53;;;;;;;2.47;1.83;;;6.20;90.70;;;;;;5020669;28;20109;-73
2021/01/15 10:52:22;;;;;;;2.30;1.75;;;6.20;91.00;;;;;;5019762;28;20033;-73
2021/01/15 10:54:48;;;;;;;1.83;1.55;;;6.30;90.80;;;;;;5019444;28;20047;-76
2021/01/15 10:57:23;;;;;;;1.95;1.73;;;6.30;91.00;;;;;;5015390;28;20052;-72
2021/01/15 10:59:58;;;;;;;2.00;1.45;;;6.50;91.10;;;;;;5017570;28;20038;-71
2021/01/15 11:02:24;;;;;;;1.63;1.42;;;6.60;90.30;;;;;;5017349;28;20045;-71
2021/01/15 11:04:56;;;;;;;1.75;1.65;;;6.50;90.00;;;;;;5014004;28;20038;-71
2021/01/15 11:07:24;;;;;;;;;;;6.40;90.90;;;;;;5015076;28;20025;-71
2021/01/15 11:09:58;;;;;;;1.45;1.30;;;6.50;90.50;;;;;;5015602;28;19905;-71
2021/01/15 11:12:27;;;;;;;2.60;1.90;;;6.50;90.10;;;;;;5016160;28;20091;-71
2021/01/15 11:14:53;;;;;;;3.22;2.38;;;6.50;90.70;;;;;;5016513;28;20505;-71
2021/01/15 11:17:19;;;;;;;1.77;1.45;;;6.60;90.70;;;;;;5015852;28;20032;-71
2021/01/15 11:19:47;;;;;;;2.50;1.65;;;6.60;90.30;;;;;;5017006;28;20022;-71
2021/01/15 11:22:20;;;;;;;5.18;1.40;;;6.60;90.70;;;;;;5014141;28;20139;-72
2021/01/15 11:24:50;;;;;;;2.28;1.40;;;6.70;90.70;;;;;;5016852;28;20087;-76
2021/01/15 11:27:15;;;;;;;6.03;1.60;;;6.70;90.10;;;;;;5013422;28;20068;-71
2021/01/15 11:29:42;;;;;;;1.23;1.13;;;6.60;90.40;;;;;;5014724;28;20382;-73
2021/01/15 11:32:10;;;;;;;3.63;1.92;;;6.70;90.00;;;;;;5011981;28;20551;-71
2021/01/15 11:34:39;;;;;;;2.47;2.17;;;6.60;90.00;;;;;;5014365;28;20045;-76
2021/01/15 11:37:08;;;;;;;1.88;1.70;;;6.60;90.30;;;;;;5007238;28;20028;-70
2021/01/15 11:39:37;;;;;;;2.03;1.88;;;6.70;90.30;;;;;;5013188;28;20034;-71
2021/01/15 11:42:03;;;;;;;3.47;2.17;;;6.70;90.00;;;;;;5014645;28;20030;-71
2021/01/15 11:44:38;;;;;;;2.05;1.85;;;6.80;89.80;;;;;;5014284;28;20040;-71
2021/01/15 11:47:10;;;;;;;1.90;1.55;;;6.80;89.80;;;;;;5015093;28;20335;-71
2021/01/15 11:49:42;;;;;;;4.32;2.10;;;6.80;89.90;;;;;;5014666;28;20060;-71
2021/01/15 11:52:11;;;;;;;2.05;1.85;;;6.70;90.00;;;;;;5012473;28;20033;-71
2021/01/15 11:54:37;;;;;;;2.22;2.03;;;6.80;89.60;;;;;;5015274;28;20026;-72
2021/01/15 11:57:06;;;;;;;2.15;1.85;;;6.80;90.00;;;;;;5015026;28;20037;-71
2021/01/15 11:59:32;;;;;;;3.70;1.92;;;6.80;89.90;;;;;;5012965;28;20117;-70
2021/01/15 12:02:01;;;;;;;2.65;1.67;;;6.80;90.20;;;;;;5012941;28;20030;-71
2021/01/15 12:04:27;;;;;;;2.60;1.80;;;6.80;90.10;;;;;;5012808;28;20065;-70
2021/01/15 12:06:56;;;;;;;2.05;1.85;;;6.90;90.20;;;;;;5014999;28;20144;-71
2021/01/15 12:09:22;;;;;;;2.83;2.42;;;6.90;90.00;;;;;;5011912;28;20030;-70
2021/01/15 12:11:50;;;;;;;2.88;1.90;;;6.90;89.70;;;;;;5012800;28;20030;-72
2021/01/15 12:14:18;;;;;;;3.20;2.20;;;7.00;90.10;;;;;;5013737;28;20026;-71
2021/01/15 12:16:44;;;;;;;2.38;2.17;;;6.90;90.00;;;;;;5013625;28;20022;-72
2021/01/15 12:19:13;;;;;;;2.55;2.05;;;7.00;90.20;;;;;;5008765;28;20036;-70
2021/01/15 12:21:38;;;;;;;3.72;2.08;;;7.00;90.10;;;;;;5013141;28;20402;-72
2021/01/15 12:24:08;;;;;;;4.72;2.63;;;7.10;90.10;;;;;;5013272;28;20072;-71
2021/01/15 12:26:40;;;;;;;3.28;2.42;;;7.10;89.90;;;;;;5012506;28;20104;-71
2021/01/15 12:29:06;;;;;;;3.33;2.47;;;7.10;89.40;;;;;;5010566;28;20045;-70
2021/01/15 12:31:32;;;;;;;4.25;2.40;;;7.20;90.00;;;;;;5013812;28;20037;-70
2021/01/15 12:33:58;;;;;;;4.70;2.63;;;7.40;89.50;;;;;;5013325;28;20474;-71
2021/01/15 12:36:24;;;;;;;6.68;3.15;;;7.30;89.10;;;;;;5008219;28;20026;-72
2021/01/15 12:38:50;;;;;;;3.58;2.38;;;7.40;90.00;;;;;;5014170;28;20026;-71
2021/01/15 12:41:20;;;;;;;2.83;2.60;;;7.50;89.30;;;;;;5014433;28;20081;-72
2021/01/15 12:43:46;;;;;;;3.00;2.70;;;7.40;89.20;;;;;;5020699;28;20032;-71
2021/01/15 12:46:13;;;;;;;5.45;3.15;;;7.40;89.70;;;;;;5019943;28;20108;-71
2021/01/15 12:48:48;;;;;;;3.30;2.20;;;7.40;89.90;;;;;;5020365;28;20022;-72
2021/01/15 12:51:13;;;;;;;4.05;2.50;;;7.20;90.10;;;;;;5016528;28;20022;-72
2021/01/15 12:53:40;;;;;;;2.65;2.45;;;7.30;90.70;;;;;;5005814;28;20030;-73
2021/01/15 12:56:05;;;;;;;3.72;3.15;;;7.40;90.70;;;;;;4993249;28;20033;-74
2021/01/15 12:58:31;;;;;;;5.65;3.08;;;7.30;90.30;;;;;;4994829;28;20018;-71
2021/01/15 13:01:00;;;;;;;3.35;2.60;;;7.30;90.80;;;;;;4994419;28;20030;-71
2021/01/15 13:03:34;;;;;;;5.70;3.17;;;7.30;90.40;;;;;;5007703;28;20049;-71
2021/01/15 13:05:59;;;;;;;4.20;2.88;;;7.40;91.10;;;;;;5014768;28;20037;-71
2021/01/15 13:08:29;;;;;;;3.92;2.80;;;7.50;90.70;;;;;;5016144;28;20022;-70
2021/01/15 13:10:54;;;;;;;3.83;2.38;;;7.50;90.40;;;;;;5002587;28;20026;-72